Time;durP1;ratioP1;P1;durP2;ratioP2;P2;SDS_P1;SDS_P2;PMS_P1;PMS_P2;Temp;Humidity;BMP_temperature;BMP_pressure;BME280_temperature;BME280_humidity;BME280_pressure;Samples;Min_cycle;Max_cycle;Signal;HPM_P1;HPM_P2
2024/03/21 00:00:18;;;;;;;70.85;37.28;;;12.40;99.90;;;;;;5014384;28;20038;-75
2024/03/21 00:02:46;;;;;;;69.20;37.20;;;12.30;99.90;;;;;;5013864;28;20438;-76
2024/03/21 00:05:14;;;;;;;68.10;37.67;;;12.30;99.90;;;;;;5013833;28;20082;-75
2024/03/21 00:07:45;;;;;;;65.97;38.20;;;12.30;99.90;;;;;;5013898;28;20052;-75
2024/03/21 00:10:12;;;;;;;68.28;38.80;;;12.30;99.90;;;;;;5014542;28;20026;-76
2024/03/21 00:12:39;;;;;;;70.53;39.28;;;12.20;99.90;;;;;;5012873;28;20026;-74
2024/03/21 00:15:05;;;;;;;70.78;40.55;;;12.20;99.90;;;;;;5013908;28;20031;-77
2024/03/21 00:17:31;;;;;;;72.15;39.80;;;12.20;99.90;;;;;;5012971;28;20042;-76
2024/03/21 00:19:57;;;;;;;71.47;39.33;;;12.20;99.90;;;;;;5013911;28;20073;-77
2024/03/21 00:22:23;;;;;;;74.15;40.05;;;12.20;99.90;;;;;;5011864;28;20022;-76
2024/03/21 00:24:49;;;;;;;79.88;41.03;;;12.20;99.90;;;;;;5014287;28;20034;-75
2024/03/21 00:27:14;;;;;;;74.63;41.33;;;12.10;99.90;;;;;;5012301;28;20031;-74
2024/03/21 00:29:40;;;;;;;79.65;42.15;;;12.10;99.90;;;;;;5013226;28;20027;-75
2024/03/21 00:32:06;;;;;;;74.32;41.20;;;12.10;99.90;;;;;;5012561;28;20019;-75
2024/03/21 00:34:32;;;;;;;75.68;42.53;;;12.10;99.90;;;;;;5012614;28;20026;-75
2024/03/21 00:36:57;;;;;;;74.45;41.72;;;12.00;99.90;;;;;;5013559;28;20034;-75
2024/03/21 00:39:23;;;;;;;77.25;43.45;;;12.00;99.90;;;;;;5013993;28;20549;-75
2024/03/21 00:41:49;;;;;;;82.55;44.60;;;12.00;99.90;;;;;;5012385;28;20053;-75
2024/03/21 00:44:15;;;;;;;79.93;43.05;;;12.00;99.90;;;;;;5013512;28;20026;-74
2024/03/21 00:46:41;;;;;;;75.85;43.90;;;12.00;99.90;;;;;;5013761;28;20122;-75
2024/03/21 00:49:08;;;;;;;83.40;42.78;;;12.00;99.90;;;;;;5011796;28;20022;-75
2024/03/21 00:51:34;;;;;;;81.20;44.33;;;12.00;99.90;;;;;;5013769;28;20511;-75
2024/03/21 00:54:00;;;;;;;84.15;44.97;;;12.00;99.90;;;;;;5013689;28;20022;-76
2024/03/21 00:56:26;;;;;;;87.20;43.72;;;12.00;99.90;;;;;;5011925;28;20553;-76
2024/03/21 00:58:54;;;;;;;81.35;43.45;;;12.00;99.90;;;;;;5011901;28;20457;-76
2024/03/21 01:01:20;;;;;;;87.20;46.50;;;12.00;99.90;;;;;;5011478;28;20018;-75
2024/03/21 01:03:46;;;;;;;81.05;43.28;;;12.10;99.90;;;;;;5028223;28;20049;-75
2024/03/21 01:06:11;;;;;;;81.70;43.40;;;12.00;99.90;;;;;;5012338;28;20022;-76
2024/03/21 01:08:37;;;;;;;85.93;45.22;;;11.90;99.90;;;;;;5011630;28;20094;-76
2024/03/21 01:11:03;;;;;;;77.38;44.08;;;12.00;99.90;;;;;;5013245;28;20033;-75
2024/03/21 01:13:29;;;;;;;84.97;45.03;;;12.00;99.90;;;;;;5012524;28;20486;-74
2024/03/21 01:15:54;;;;;;;77.75;43.88;;;12.00;99.90;;;;;;5011723;28;20018;-73
2024/03/21 01:18:25;;;;;;;87.68;45.33;;;12.10;99.90;;;;;;5012992;28;20054;-72
2024/03/21 01:20:51;;;;;;;94.72;47.70;;;12.00;99.90;;;;;;5013212;28;20049;-73
2024/03/21 01:23:17;;;;;;;98.60;48.53;;;12.00;99.90;;;;;;5012884;28;20046;-73
2024/03/21 01:25:42;;;;;;;93.75;48.22;;;12.00;99.90;;;;;;5011504;28;20027;-73
2024/03/21 01:28:08;;;;;;;95.07;47.92;;;12.00;99.90;;;;;;5011116;28;20081;-74
2024/03/21 01:30:34;;;;;;;94.10;47.05;;;11.90;99.90;;;;;;5010695;28;20034;-74
2024/03/21 01:33:00;;;;;;;89.22;44.70;;;11.90;99.90;;;;;;5011004;28;20044;-73
2024/03/21 01:35:26;;;;;;;88.65;46.63;;;11.90;99.90;;;;;;5010967;28;20022;-73
2024/03/21 01:37:53;;;;;;;88.75;45.97;;;11.80;99.90;;;;;;5011708;28;20042;-73
2024/03/21 01:40:19;;;;;;;82.95;42.03;;;11.90;99.90;;;;;;5010380;28;20094;-73
2024/03/21 01:42:46;;;;;;;81.65;40.92;;;11.80;99.90;;;;;;5012529;28;20037;-73
2024/03/21 01:45:12;;;;;;;77.32;39.28;;;11.80;99.90;;;;;;5009766;28;20482;-74
2024/03/21 01:47:38;;;;;;;75.22;39.30;;;11.80;99.90;;;;;;5012009;28;20075;-74
2024/03/21 01:50:05;;;;;;;70.90;37.25;;;11.80;99.90;;;;;;5010672;28;20057;-74
2024/03/21 01:52:31;;;;;;;71.70;36.42;;;11.70;99.90;;;;;;5024898;28;20822;-74
2024/03/21 01:54:58;;;;;;;71.30;35.70;;;11.80;99.90;;;;;;5012251;28;20094;-74
2024/03/21 01:57:24;;;;;;;73.50;37.03;;;11.70;99.90;;;;;;5010899;28;20110;-73
2024/03/21 01:59:50;;;;;;;74.28;38.47;;;11.70;99.90;;;;;;5010840;28;20027;-74
2024/03/21 02:02:16;;;;;;;71.60;37.05;;;11.70;99.90;;;;;;5011714;28;20070;-75
2024/03/21 02:04:42;;;;;;;70.18;36.10;;;11.70;99.90;;;;;;5011753;28;20053;-75
2024/03/21 02:07:13;;;;;;;71.60;34.78;;;11.70;99.90;;;;;;5011864;28;20053;-74
2024/03/21 02:09:39;;;;;;;72.00;35.58;;;11.60;99.90;;;;;;5010571;28;20082;-75
2024/03/21 02:12:07;;;;;;;72.85;36.08;;;11.60;99.90;;;;;;5010233;28;20018;-75
2024/03/21 02:14:35;;;;;;;69.43;33.75;;;11.60;99.90;;;;;;5011816;28;20030;-75
2024/03/21 02:17:01;;;;;;;71.75;34.35;;;11.60;99.90;;;;;;5012058;28;20030;-74
2024/03/21 02:19:26;;;;;;;69.60;33.78;;;11.60;99.90;;;;;;5011217;28;20090;-73
2024/03/21 02:24:36;;;;;;;66.68;30.75;;;11.60;99.90;;;;;;5013336;28;20094;-74
2024/03/21 02:27:01;;;;;;;59.45;30.30;;;11.60;99.90;;;;;;5011401;28;20026;-75
2024/03/21 02:29:27;;;;;;;68.43;32.50;;;11.60;99.90;;;;;;5010194;28;20026;-74
2024/03/21 02:31:53;;;;;;;67.80;32.58;;;11.50;99.90;;;;;;5012733;28;20037;-73
2024/03/21 02:34:19;;;;;;;71.68;33.60;;;11.50;99.90;;;;;;5011645;28;20041;-75
2024/03/21 02:36:44;;;;;;;75.00;34.90;;;11.50;99.90;;;;;;5033603;28;20489;-75
2024/03/21 02:39:14;;;;;;;75.97;32.75;;;11.50;99.90;;;;;;5010509;28;20030;-76
2024/03/21 02:41:39;;;;;;;69.97;32.63;;;11.50;99.90;;;;;;5012007;28;20094;-76
2024/03/21 02:44:05;;;;;;;69.47;33.30;;;11.50;99.90;;;;;;5011580;28;20026;-75
2024/03/21 02:46:31;;;;;;;80.00;33.53;;;11.50;99.90;;;;;;5013705;28;20038;-75
2024/03/21 02:48:56;;;;;;;79.15;34.08;;;11.50;99.90;;;;;;5015208;28;20042;-74
2024/03/21 02:51:23;;;;;;;78.00;35.15;;;11.50;99.90;;;;;;5015357;28;20038;-75
2024/03/21 02:53:50;;;;;;;87.43;37.10;;;11.50;99.90;;;;;;5013244;28;20475;-75
2024/03/21 02:56:17;;;;;;;81.70;36.13;;;11.50;99.90;;;;;;5011072;28;20567;-74
2024/03/21 02:58:43;;;;;;;77.85;34.35;;;11.50;99.90;;;;;;5014871;28;20014;-74
2024/03/21 03:01:09;;;;;;;72.15;33.58;;;11.40;99.90;;;;;;5015190;28;20034;-74
2024/03/21 03:03:34;;;;;;;75.85;34.55;;;11.40;99.90;;;;;;5014531;28;20479;-74
2024/03/21 03:06:01;;;;;;;82.30;35.30;;;11.40;99.90;;;;;;5016791;28;20092;-76
2024/03/21 03:08:26;;;;;;;80.45;34.25;;;11.40;99.90;;;;;;5014209;28;20026;-76
2024/03/21 03:10:53;;;;;;;81.82;35.13;;;11.30;99.90;;;;;;5013417;28;20022;-75
2024/03/21 03:13:18;;;;;;;71.40;32.67;;;11.30;99.90;;;;;;5015618;28;20026;-75
2024/03/21 03:15:44;;;;;;;67.43;29.52;;;11.30;99.90;;;;;;5014068;28;20045;-74
2024/03/21 03:18:09;;;;;;;72.60;31.08;;;11.30;99.90;;;;;;5014561;28;20041;-74
2024/03/21 03:20:35;;;;;;;63.35;29.15;;;11.20;99.90;;;;;;5014100;28;20027;-76
2024/03/21 03:23:01;;;;;;;64.85;29.15;;;11.20;99.90;;;;;;5013168;28;20033;-75
2024/03/21 03:25:27;;;;;;;63.22;28.85;;;11.20;99.90;;;;;;5014555;28;20046;-74
2024/03/21 03:27:54;;;;;;;64.32;29.95;;;11.20;99.90;;;;;;5014518;28;20073;-73
2024/03/21 03:30:20;;;;;;;66.47;29.08;;;11.20;99.90;;;;;;5013015;28;20049;-74
2024/03/21 03:32:58;;;;;;;61.97;28.00;;;11.20;99.90;;;;;;5013313;28;20083;-74
2024/03/21 03:35:34;;;;;;;55.72;27.08;;;11.20;99.90;;;;;;5014933;28;20029;-74
2024/03/21 03:38:00;;;;;;;60.55;27.95;;;11.20;99.90;;;;;;5013137;28;20148;-73
2024/03/21 03:40:26;;;;;;;63.97;29.02;;;11.20;99.90;;;;;;5015355;28;20022;-74
2024/03/21 03:42:52;;;;;;;66.35;29.77;;;11.20;99.90;;;;;;5014712;28;20035;-76
2024/03/21 03:45:19;;;;;;;60.67;28.58;;;11.10;99.90;;;;;;5014694;28;20475;-76
2024/03/21 03:47:45;;;;;;;64.20;29.48;;;11.10;99.90;;;;;;5013486;28;20035;-75
2024/03/21 03:50:11;;;;;;;68.50;31.02;;;11.10;99.90;;;;;;5013510;28;20035;-76
2024/03/21 03:52:37;;;;;;;65.40;29.10;;;11.10;99.90;;;;;;5014079;28;20025;-76
2024/03/21 03:55:02;;;;;;;66.88;29.67;;;11.10;99.90;;;;;;5014673;28;20018;-77
2024/03/21 03:57:28;;;;;;;57.78;26.50;;;11.10;99.90;;;;;;5010778;28;20138;-74
2024/03/21 03:59:54;;;;;;;62.55;28.50;;;11.10;99.90;;;;;;5015481;28;20030;-74
2024/03/21 04:02:21;;;;;;;63.20;28.35;;;11.00;99.90;;;;;;5012528;28;20445;-74
2024/03/21 04:04:47;;;;;;;60.15;27.92;;;11.10;99.90;;;;;;5013804;28;20494;-77
2024/03/21 04:07:12;;;;;;;63.58;28.25;;;11.00;99.90;;;;;;5012230;28;20140;-77
2024/03/21 04:09:38;;;;;;;61.10;28.13;;;11.00;99.90;;;;;;5013226;28;20031;-77
2024/03/21 04:12:04;;;;;;;56.65;26.63;;;11.00;99.90;;;;;;5011804;28;20045;-76
2024/03/21 04:14:29;;;;;;;55.92;26.60;;;11.00;99.90;;;;;;5011577;28;20036;-76
2024/03/21 04:16:55;;;;;;;55.03;25.40;;;11.00;99.90;;;;;;5013435;28;20604;-76
2024/03/21 04:19:20;;;;;;;46.08;22.05;;;11.00;99.90;;;;;;5013562;28;20022;-75
2024/03/21 04:21:47;;;;;;;41.20;20.25;;;10.90;99.90;;;;;;5014478;28;20046;-76
2024/03/21 04:24:12;;;;;;;42.05;20.73;;;11.00;99.90;;;;;;5014001;28;20029;-73
2024/03/21 04:26:38;;;;;;;41.13;19.52;;;10.90;99.90;;;;;;5013409;28;20037;-72
2024/03/21 04:29:04;;;;;;;38.55;18.15;;;10.90;99.90;;;;;;5014969;28;20030;-76
2024/03/21 04:31:30;;;;;;;33.10;16.63;;;10.90;99.90;;;;;;5014304;28;20033;-76
2024/03/21 04:33:55;;;;;;;36.83;16.63;;;10.90;99.90;;;;;;5013367;28;20093;-74
2024/03/21 04:36:21;;;;;;;30.20;15.50;;;10.80;99.90;;;;;;5013955;28;20088;-75
2024/03/21 04:38:47;;;;;;;28.73;14.20;;;10.90;99.90;;;;;;5013913;28;20026;-74
2024/03/21 04:41:12;;;;;;;29.38;15.00;;;10.90;99.90;;;;;;5013086;28;20026;-74
2024/03/21 04:43:38;;;;;;;28.40;14.10;;;10.90;99.90;;;;;;5012576;28;20034;-74
2024/03/21 04:46:03;;;;;;;32.50;14.35;;;10.80;99.90;;;;;;5012381;28;20114;-74
2024/03/21 04:48:29;;;;;;;26.30;13.35;;;10.80;99.90;;;;;;5010749;28;20030;-74
2024/03/21 04:50:55;;;;;;;25.85;13.43;;;10.80;99.90;;;;;;5012806;28;20085;-75
2024/03/21 04:53:20;;;;;;;24.92;14.07;;;10.80;99.90;;;;;;5012620;28;20026;-74
2024/03/21 04:55:46;;;;;;;24.88;12.57;;;10.80;99.90;;;;;;5012926;28;20480;-75
2024/03/21 04:58:11;;;;;;;23.58;12.50;;;10.70;99.90;;;;;;5011436;28;20418;-74
2024/03/21 05:00:38;;;;;;;19.58;10.88;;;10.70;99.90;;;;;;5011125;28;20034;-74
2024/03/21 05:03:04;;;;;;;23.85;11.88;;;10.70;99.90;;;;;;5014575;28;20058;-77
2024/03/21 05:05:29;;;;;;;22.23;12.00;;;10.70;99.90;;;;;;5013604;28;20085;-74
2024/03/21 05:07:55;;;;;;;19.73;10.82;;;10.60;99.90;;;;;;5013486;28;20081;-73
2024/03/21 05:10:21;;;;;;;26.38;13.38;;;10.60;99.90;;;;;;5012365;28;20097;-74
2024/03/21 05:12:47;;;;;;;24.27;12.55;;;10.40;99.90;;;;;;5015231;28;20113;-76
2024/03/21 05:15:12;;;;;;;26.75;13.98;;;10.30;99.90;;;;;;5012021;28;20057;-77
2024/03/21 05:17:38;;;;;;;28.92;15.55;;;10.10;99.90;;;;;;5014987;28;20053;-75
2024/03/21 05:20:04;;;;;;;35.33;15.95;;;9.80;99.90;;;;;;5014651;28;20041;-76
2024/03/21 05:22:30;;;;;;;30.83;14.95;;;9.50;99.90;;;;;;5013375;28;20036;-72
2024/03/21 05:24:56;;;;;;;31.30;15.50;;;9.30;99.90;;;;;;5014132;28;20116;-72
2024/03/21 05:27:24;;;;;;;29.85;15.20;;;9.10;99.90;;;;;;5014494;28;20037;-73
2024/03/21 05:29:49;;;;;;;30.27;15.23;;;9.00;99.90;;;;;;5013637;28;20061;-75
2024/03/21 05:32:15;;;;;;;32.10;16.38;;;9.00;99.90;;;;;;5011910;28;20022;-73
2024/03/21 05:34:40;;;;;;;36.30;16.33;;;8.80;99.90;;;;;;5012925;28;20090;-75
2024/03/21 05:37:06;;;;;;;34.60;17.83;;;8.70;99.90;;;;;;5010841;28;20486;-77
2024/03/21 05:39:32;;;;;;;30.35;16.33;;;8.60;99.90;;;;;;5012255;28;20029;-74
2024/03/21 05:41:57;;;;;;;30.70;16.52;;;8.50;99.90;;;;;;5012294;28;20421;-75
2024/03/21 05:44:23;;;;;;;32.38;16.88;;;8.40;99.90;;;;;;5022257;28;20033;-74
2024/03/21 05:46:50;;;;;;;32.42;15.68;;;8.40;99.90;;;;;;5013575;28;20482;-76
2024/03/21 05:49:15;;;;;;;28.20;14.10;;;8.30;99.90;;;;;;5013595;28;20026;-73
2024/03/21 05:51:42;;;;;;;26.35;12.68;;;8.30;99.90;;;;;;5013321;28;20036;-73
2024/03/21 05:54:09;;;;;;;30.25;13.85;;;8.30;99.90;;;;;;5012351;28;20102;-75
2024/03/21 05:56:35;;;;;;;28.52;12.18;;;8.30;99.90;;;;;;5012985;28;20144;-76
2024/03/21 05:59:02;;;;;;;25.13;12.10;;;8.30;99.90;;;;;;5014712;28;20487;-75
2024/03/21 06:01:34;;;;;;;23.90;9.63;;;8.20;99.90;;;;;;5011581;28;20033;-72
2024/03/21 06:04:02;;;;;;;25.15;8.63;;;8.20;99.90;;;;;;5011719;28;21012;-73
2024/03/21 06:06:27;;;;;;;21.15;7.65;;;8.10;99.90;;;;;;5012153;28;20026;-73
2024/03/21 06:08:54;;;;;;;13.77;6.40;;;8.00;99.90;;;;;;5014493;28;20037;-74
2024/03/21 06:11:20;;;;;;;16.25;6.10;;;8.00;99.90;;;;;;5011234;28;20105;-75
2024/03/21 06:13:46;;;;;;;18.33;6.10;;;7.90;99.90;;;;;;5012359;28;20399;-72
2024/03/21 06:16:11;;;;;;;18.13;5.68;;;7.90;99.90;;;;;;5014430;28;20034;-75
2024/03/21 06:18:37;;;;;;;20.35;5.80;;;7.80;99.90;;;;;;5013327;28;20022;-75
2024/03/21 06:21:03;;;;;;;16.30;5.45;;;7.80;99.90;;;;;;5014490;28;20530;-74
2024/03/21 06:23:28;;;;;;;18.08;6.10;;;7.70;99.90;;;;;;5014491;28;20097;-73
2024/03/21 06:25:57;;;;;;;21.77;6.82;;;7.70;99.90;;;;;;5015622;28;20058;-74
2024/03/21 06:28:22;;;;;;;21.55;6.50;;;7.70;99.90;;;;;;5016649;28;20030;-73
2024/03/21 06:30:48;;;;;;;21.88;6.20;;;7.70;99.90;;;;;;5014545;28;20054;-72
2024/03/21 06:33:13;;;;;;;19.75;6.10;;;7.70;99.90;;;;;;5013468;28;20037;-73
2024/03/21 06:35:41;;;;;;;22.02;6.63;;;7.70;99.90;;;;;;5015277;28;20049;-74
2024/03/21 06:38:07;;;;;;;21.05;6.47;;;7.70;99.90;;;;;;5013396;28;20088;-76
2024/03/21 06:40:33;;;;;;;23.60;6.28;;;7.70;99.90;;;;;;5014452;28;20390;-73
2024/03/21 06:42:58;;;;;;;17.90;6.85;;;7.70;99.90;;;;;;5015461;28;20077;-73
2024/03/21 06:45:24;;;;;;;22.83;6.75;;;7.70;99.90;;;;;;5015216;28;20022;-76
2024/03/21 06:47:50;;;;;;;20.92;6.78;;;7.70;99.90;;;;;;5015595;28;20089;-74
2024/03/21 06:50:17;;;;;;;21.15;7.20;;;7.70;99.90;;;;;;5013539;28;20041;-76
2024/03/21 06:52:47;;;;;;;22.30;7.53;;;7.70;99.90;;;;;;5021276;28;20030;-76
2024/03/21 06:55:14;;;;;;;21.60;7.13;;;7.70;99.90;;;;;;5014174;28;20053;-73
2024/03/21 06:57:47;;;;;;;22.45;7.40;;;7.70;99.90;;;;;;5014474;28;20106;-73
2024/03/21 07:00:13;;;;;;;24.58;7.82;;;7.70;99.90;;;;;;5014733;28;20089;-73
2024/03/21 07:02:39;;;;;;;20.98;7.93;;;7.70;99.90;;;;;;5013020;28;20072;-72
2024/03/21 07:05:07;;;;;;;27.73;7.65;;;7.70;99.90;;;;;;5013042;28;20034;-76
2024/03/21 07:07:33;;;;;;;25.17;7.65;;;7.80;99.90;;;;;;5015096;28;20102;-73
2024/03/21 07:09:58;;;;;;;24.30;8.18;;;7.70;99.90;;;;;;5015386;28;20508;-73
2024/03/21 07:12:24;;;;;;;28.38;8.82;;;7.80;99.90;;;;;;5013622;28;20026;-73
2024/03/21 07:14:49;;;;;;;22.48;7.90;;;7.80;99.90;;;;;;5012926;28;20023;-75
2024/03/21 07:17:15;;;;;;;26.25;7.47;;;7.80;99.90;;;;;;5015113;28;20092;-75
2024/03/21 07:19:44;;;;;;;28.90;7.47;;;7.90;99.90;;;;;;5013079;28;20074;-76
2024/03/21 07:22:10;;;;;;;31.08;8.32;;;7.90;99.90;;;;;;5014580;28;20026;-74
2024/03/21 07:24:35;;;;;;;30.73;7.97;;;7.90;99.90;;;;;;5013603;28;20026;-78
2024/03/21 07:27:01;;;;;;;26.88;7.95;;;7.90;99.90;;;;;;5013610;28;20026;-74
2024/03/21 07:29:28;;;;;;;22.60;8.00;;;7.90;99.90;;;;;;5014959;28;20102;-75
2024/03/21 07:31:54;;;;;;;24.95;8.60;;;7.90;99.90;;;;;;5013224;28;20097;-74
2024/03/21 07:34:22;;;;;;;24.13;8.35;;;7.90;99.90;;;;;;5012306;28;20081;-75
2024/03/21 07:36:47;;;;;;;26.58;8.13;;;7.90;99.90;;;;;;5013128;28;20042;-75
2024/03/21 07:39:13;;;;;;;26.25;8.27;;;7.90;99.90;;;;;;5014207;28;20431;-74
2024/03/21 07:41:39;;;;;;;21.45;7.60;;;7.90;99.90;;;;;;5013529;28;20075;-76
2024/03/21 07:44:05;;;;;;;22.10;8.10;;;8.00;99.90;;;;;;5012513;28;20065;-77
2024/03/21 07:46:31;;;;;;;26.75;9.32;;;8.00;99.90;;;;;;5012366;28;20022;-73
2024/03/21 07:48:58;;;;;;;25.85;7.97;;;8.00;99.90;;;;;;5012985;28;20026;-72
2024/03/21 07:51:24;;;;;;;22.95;8.80;;;8.00;99.90;;;;;;5011975;28;20035;-73
2024/03/21 07:53:50;;;;;;;23.80;8.98;;;8.00;99.90;;;;;;5019590;28;20053;-75
2024/03/21 07:56:15;;;;;;;24.00;9.38;;;8.10;99.90;;;;;;5014262;28;20025;-75
2024/03/21 07:58:41;;;;;;;26.83;9.27;;;8.10;99.90;;;;;;5011806;28;20048;-74
2024/03/21 08:01:07;;;;;;;22.45;9.98;;;8.10;99.90;;;;;;5014966;28;20113;-75
2024/03/21 08:03:32;;;;;;;26.60;9.25;;;8.00;99.90;;;;;;5014902;28;20048;-74
2024/03/21 08:05:58;;;;;;;28.33;9.13;;;8.00;99.90;;;;;;5013430;28;20026;-73
2024/03/21 08:08:23;;;;;;;22.48;8.35;;;8.00;99.90;;;;;;5019341;28;20030;-77
2024/03/21 08:10:49;;;;;;;25.08;10.30;;;7.90;99.90;;;;;;5012351;28;20034;-73
2024/03/21 08:13:15;;;;;;;23.75;9.15;;;8.00;99.90;;;;;;5013277;28;20134;-74
2024/03/21 08:15:40;;;;;;;25.88;8.93;;;8.00;99.90;;;;;;5027681;28;20035;-73
2024/03/21 08:18:06;;;;;;;23.00;9.82;;;8.00;99.90;;;;;;5013152;28;20046;-74
2024/03/21 08:20:32;;;;;;;23.58;9.48;;;8.00;99.90;;;;;;5013388;28;20042;-74
2024/03/21 08:22:58;;;;;;;26.60;9.90;;;8.00;99.90;;;;;;5013197;28;20065;-74
2024/03/21 08:25:24;;;;;;;27.98;9.80;;;8.00;99.90;;;;;;5012608;28;20026;-73
2024/03/21 08:27:50;;;;;;;34.63;10.15;;;8.10;99.90;;;;;;5015154;28;20045;-75
2024/03/21 08:30:15;;;;;;;37.05;10.18;;;8.10;99.90;;;;;;5011516;28;20106;-75
2024/03/21 08:32:41;;;;;;;27.13;10.65;;;8.10;99.90;;;;;;5014160;28;20040;-73
2024/03/21 08:35:07;;;;;;;40.83;11.48;;;8.00;99.90;;;;;;5013856;28;20026;-74
2024/03/21 08:37:32;;;;;;;30.05;10.15;;;8.10;99.90;;;;;;5012315;28;20057;-75
2024/03/21 08:40:00;;;;;;;34.63;9.98;;;8.00;99.90;;;;;;5013788;28;20037;-74
2024/03/21 08:42:26;;;;;;;40.75;10.32;;;8.00;99.90;;;;;;5011803;28;20023;-74
2024/03/21 08:44:55;;;;;;;29.13;9.60;;;7.90;99.90;;;;;;5013698;28;20398;-74
2024/03/21 08:47:22;;;;;;;29.77;8.65;;;8.00;99.90;;;;;;5012178;28;20056;-75
2024/03/21 08:49:47;;;;;;;25.30;8.25;;;8.00;99.90;;;;;;5015049;28;20078;-70
2024/03/21 08:52:13;;;;;;;22.60;8.55;;;8.10;99.90;;;;;;5013394;28;20033;-76
2024/03/21 08:54:38;;;;;;;26.20;9.00;;;8.10;99.90;;;;;;5012755;28;20031;-73
2024/03/21 08:57:04;;;;;;;32.58;8.88;;;8.10;99.90;;;;;;5013228;28;20041;-72
2024/03/21 08:59:30;;;;;;;25.67;8.55;;;8.10;99.90;;;;;;5011868;28;20022;-71
2024/03/21 09:01:55;;;;;;;28.30;9.43;;;8.10;99.90;;;;;;5012540;28;20050;-74
2024/03/21 09:04:21;;;;;;;31.10;9.18;;;8.20;99.90;;;;;;5012081;28;20116;-75
2024/03/21 09:06:47;;;;;;;31.20;8.70;;;8.20;99.90;;;;;;5013275;28;20086;-76
2024/03/21 09:09:15;;;;;;;27.90;8.95;;;8.30;99.90;;;;;;5013218;28;20038;-72
2024/03/21 09:11:41;;;;;;;26.05;8.60;;;8.30;99.90;;;;;;5014015;28;20019;-72
2024/03/21 09:14:08;;;;;;;29.73;8.80;;;8.30;99.90;;;;;;5012625;28;20084;-72
2024/03/21 09:16:33;;;;;;;29.63;9.35;;;8.40;99.90;;;;;;5010490;28;20038;-72
2024/03/21 09:18:59;;;;;;;24.40;8.15;;;8.40;99.90;;;;;;5015154;28;20026;-72
2024/03/21 09:21:24;;;;;;;29.55;10.18;;;8.40;99.90;;;;;;5012068;28;20046;-74
2024/03/21 09:23:50;;;;;;;30.63;9.68;;;8.40;99.90;;;;;;5009811;28;20034;-73
2024/03/21 09:26:17;;;;;;;28.35;9.38;;;8.50;99.90;;;;;;5012892;28;20053;-71
2024/03/21 09:28:43;;;;;;;29.98;9.52;;;8.50;99.90;;;;;;5012301;28;20041;-71
2024/03/21 09:31:09;;;;;;;29.20;9.43;;;8.50;99.90;;;;;;5013321;28;20030;-72
2024/03/21 09:33:34;;;;;;;29.42;9.18;;;8.60;99.90;;;;;;5011347;28;20024;-73
2024/03/21 09:36:03;;;;;;;28.13;7.95;;;8.70;99.90;;;;;;5012734;28;20057;-73
2024/03/21 09:38:29;;;;;;;25.00;8.48;;;8.70;99.90;;;;;;5011425;28;20395;-74
2024/03/21 09:40:59;;;;;;;31.42;9.30;;;8.70;99.90;;;;;;5010894;28;20034;-72
2024/03/21 09:43:25;;;;;;;24.50;8.57;;;8.80;99.90;;;;;;5011065;28;20030;-74
2024/03/21 09:45:54;;;;;;;23.67;8.45;;;8.80;99.90;;;;;;5011848;28;20033;-74
2024/03/21 09:48:21;;;;;;;19.30;8.32;;;8.90;99.90;;;;;;5010832;28;20029;-73
2024/03/21 09:50:47;;;;;;;21.60;8.60;;;8.90;99.90;;;;;;5026460;28;20029;-71
2024/03/21 09:53:16;;;;;;;23.02;8.75;;;8.90;99.90;;;;;;5011285;28;20026;-73
2024/03/21 09:55:43;;;;;;;35.38;9.40;;;8.80;99.90;;;;;;5011068;28;20097;-74
2024/03/21 09:58:16;;;;;;;24.60;8.90;;;8.80;99.90;;;;;;5012490;28;20044;-73
2024/03/21 10:00:42;;;;;;;33.50;9.43;;;8.90;99.90;;;;;;5011840;28;20053;-74
2024/03/21 10:03:13;;;;;;;25.88;9.82;;;8.90;99.90;;;;;;5012537;28;20084;-72
2024/03/21 10:05:45;;;;;;;26.50;9.68;;;9.00;99.90;;;;;;5012686;28;20036;-73
2024/03/21 10:08:12;;;;;;;31.17;10.88;;;9.00;99.90;;;;;;5012210;28;20017;-73
2024/03/21 10:10:38;;;;;;;32.25;10.98;;;9.10;99.90;;;;;;5010570;28;20053;-73
2024/03/21 10:13:04;;;;;;;23.88;10.80;;;9.10;99.90;;;;;;5011691;28;20037;-72
2024/03/21 10:15:32;;;;;;;26.02;10.13;;;9.20;99.90;;;;;;5011825;28;20030;-72
2024/03/21 10:17:59;;;;;;;25.17;9.27;;;9.40;99.90;;;;;;5012341;28;20030;-74
2024/03/21 10:20:25;;;;;;;24.35;9.45;;;9.50;99.90;;;;;;5010254;28;20030;-72
2024/03/21 10:22:52;;;;;;;21.80;9.10;;;9.60;99.90;;;;;;5011514;28;20068;-75
2024/03/21 10:25:19;;;;;;;23.75;9.15;;;9.70;99.90;;;;;;5010639;28;20022;-73
2024/03/21 10:27:46;;;;;;;17.95;9.25;;;9.90;99.90;;;;;;5009836;28;20022;-73
2024/03/21 10:30:21;;;;;;;22.80;9.40;;;10.00;99.90;;;;;;5016367;28;20034;-76
2024/03/21 10:32:47;;;;;;;19.98;9.43;;;10.10;99.90;;;;;;5010181;28;20061;-72
2024/03/21 10:35:15;;;;;;;17.17;8.88;;;10.10;99.90;;;;;;5009593;28;20030;-75
2024/03/21 10:37:43;;;;;;;22.83;10.02;;;10.20;99.90;;;;;;5011687;28;20064;-76
2024/03/21 10:40:14;;;;;;;22.73;10.32;;;10.30;99.90;;;;;;5011111;28;20023;-77
2024/03/21 10:42:56;;;;;;;21.50;11.80;;;10.20;99.90;;;;;;5011408;28;20627;-75
2024/03/21 10:45:24;;;;;;;24.73;11.40;;;10.20;99.90;;;;;;5012153;28;20093;-74
2024/03/21 10:47:50;;;;;;;23.00;10.55;;;10.30;99.90;;;;;;5028210;28;20027;-77
2024/03/21 10:50:23;;;;;;;24.52;10.60;;;10.60;99.90;;;;;;5013357;28;20037;-74
2024/03/21 10:52:55;;;;;;;23.00;9.35;;;10.70;99.90;;;;;;5012592;28;20117;-76
2024/03/21 10:55:21;;;;;;;26.85;9.85;;;10.60;99.90;;;;;;5033307;28;20383;-76
2024/03/21 10:57:55;;;;;;;25.02;9.50;;;10.60;99.90;;;;;;5026281;28;20423;-75
2024/03/21 11:00:22;;;;;;;22.67;9.37;;;10.50;99.90;;;;;;5010587;28;20026;-77
2024/03/21 11:02:52;;;;;;;25.20;9.23;;;10.50;99.90;;;;;;5012948;28;20095;-74
2024/03/21 11:05:24;;;;;;;21.83;8.90;;;10.50;99.90;;;;;;5010595;28;20114;-76
2024/03/21 11:07:50;;;;;;;22.00;8.93;;;10.50;99.90;;;;;;5026588;28;20034;-76
2024/03/21 11:10:21;;;;;;;25.45;9.20;;;10.50;99.90;;;;;;5013807;28;20089;-74
2024/03/21 11:12:48;;;;;;;20.23;8.30;;;10.60;99.90;;;;;;5016023;28;20026;-75
2024/03/21 11:15:14;;;;;;;23.73;8.07;;;10.70;99.90;;;;;;5015112;28;20037;-75
2024/03/21 11:17:40;;;;;;;18.45;7.80;;;10.80;99.90;;;;;;5015107;28;20072;-75
2024/03/21 11:20:09;;;;;;;24.38;8.48;;;11.00;99.90;;;;;;5013517;28;20030;-74
2024/03/21 11:22:35;;;;;;;26.17;8.50;;;11.10;99.90;;;;;;5014278;28;20057;-76
2024/03/21 11:25:02;;;;;;;25.90;8.85;;;11.40;99.90;;;;;;5014432;28;20097;-76
2024/03/21 11:27:29;;;;;;;18.00;6.50;;;11.70;99.90;;;;;;5015729;28;20038;-75
2024/03/21 11:29:54;;;;;;;14.32;6.00;;;11.90;99.90;;;;;;5014546;28;20021;-74
2024/03/21 11:32:22;;;;;;;20.60;6.80;;;12.10;99.90;;;;;;5013743;28;20095;-72
2024/03/21 11:34:48;;;;;;;14.75;5.80;;;12.40;99.90;;;;;;5029925;28;20026;-73
2024/03/21 11:37:17;;;;;;;12.52;5.20;;;12.60;99.90;;;;;;5012958;28;20041;-75
2024/03/21 11:39:46;;;;;;;14.38;5.78;;;12.60;99.90;;;;;;5014523;28;20026;-74
2024/03/21 11:42:14;;;;;;;13.40;5.55;;;12.60;99.90;;;;;;5014108;28;20033;-76
2024/03/21 11:44:42;;;;;;;17.85;6.03;;;12.70;99.90;;;;;;5024872;28;20026;-74
2024/03/21 11:47:15;;;;;;;19.02;5.95;;;12.60;99.90;;;;;;5013982;28;20026;-76
2024/03/21 11:49:48;;;;;;;19.73;5.77;;;12.70;99.90;;;;;;5012625;28;20022;-76
2024/03/21 11:52:15;;;;;;;20.73;5.55;;;12.60;99.90;;;;;;5012763;28;20041;-76
2024/03/21 11:54:41;;;;;;;21.00;5.45;;;12.50;99.90;;;;;;5011818;28;20037;-74
2024/03/21 11:57:15;;;;;;;27.30;5.32;;;12.30;99.90;;;;;;5015244;28;20025;-75
2024/03/21 11:59:42;;;;;;;17.10;5.33;;;12.20;99.90;;;;;;5012754;28;20030;-76
2024/03/21 12:02:16;;;;;;;18.05;4.97;;;12.10;99.90;;;;;;5013634;28;20050;-75
2024/03/21 12:04:41;;;;;;;14.20;4.25;;;12.40;99.90;;;;;;5011075;28;20173;-77
2024/03/21 12:07:11;;;;;;;18.48;4.65;;;12.60;99.90;;;;;;5011765;28;20062;-75
2024/03/21 12:09:37;;;;;;;18.33;4.38;;;12.70;99.90;;;;;;5013638;28;20022;-76
2024/03/21 12:12:03;;;;;;;13.98;4.50;;;12.60;99.90;;;;;;5011595;28;20042;-76
2024/03/21 12:14:29;;;;;;;18.15;4.10;;;12.30;99.90;;;;;;5011039;28;20049;-77
2024/03/21 12:16:55;;;;;;;15.27;3.20;;;12.10;99.90;;;;;;5012061;28;20050;-75
2024/03/21 12:19:20;;;;;;;13.15;3.58;;;12.10;99.90;;;;;;5010932;28;20500;-74
2024/03/21 12:21:46;;;;;;;21.80;3.65;;;12.10;99.90;;;;;;5012992;28;20026;-75
2024/03/21 12:24:12;;;;;;;13.80;3.70;;;11.90;99.90;;;;;;5012365;28;20054;-74
2024/03/21 12:26:38;;;;;;;17.83;3.75;;;11.80;99.90;;;;;;5014380;28;20057;-73
2024/03/21 12:29:03;;;;;;;17.75;3.60;;;11.70;99.90;;;;;;5014302;28;20026;-74
2024/03/21 12:31:29;;;;;;;19.00;3.58;;;11.70;99.90;;;;;;5012199;28;20041;-74
2024/03/21 12:33:56;;;;;;;9.55;3.25;;;12.00;99.90;;;;;;5012329;28;20052;-74